sensor_id;sensor_type;location;lat;lon;timestamp;P1;durP1;ratioP1;P2;durP2;ratioP2
18576;SDS011;9418;52.694;13.294;2024-03-02T00:00:42;37.70;;;27.13;;
18576;SDS011;9418;52.694;13.294;2024-03-02T00:03:09;40.53;;;28.37;;
18576;SDS011;9418;52.694;13.294;2024-03-02T00:05:40;44.40;;;28.07;;
18576;SDS011;9418;52.694;13.294;2024-03-02T00:08:07;38.30;;;27.20;;
18576;SDS011;9418;52.694;13.294;2024-03-02T00:10:35;40.10;;;28.03;;
18576;SDS011;9418;52.694;13.294;2024-03-02T00:13:04;35.77;;;26.47;;
18576;SDS011;9418;52.694;13.294;2024-03-02T00:15:39;36.87;;;27.37;;
18576;SDS011;9418;52.694;13.294;2024-03-02T00:18:07;44.77;;;27.63;;
18576;SDS011;9418;52.694;13.294;2024-03-02T00:20:36;37.50;;;27.37;;
18576;SDS011;9418;52.694;13.294;2024-03-02T00:23:05;40.30;;;26.83;;
18576;SDS011;9418;52.694;13.294;2024-03-02T00:25:39;32.10;;;24.30;;
18576;SDS011;9418;52.694;13.294;2024-03-02T00:28:10;47.40;;;31.90;;
18576;SDS011;9418;52.694;13.294;2024-03-02T00:30:49;47.80;;;32.43;;
18576;SDS011;9418;52.694;13.294;2024-03-02T00:33:19;41.13;;;28.23;;
18576;SDS011;9418;52.694;13.294;2024-03-02T00:35:46;38.83;;;28.37;;
18576;SDS011;9418;52.694;13.294;2024-03-02T00:38:15;47.17;;;27.53;;
18576;SDS011;9418;52.694;13.294;2024-03-02T00:40:41;37.43;;;27.47;;
18576;SDS011;9418;52.694;13.294;2024-03-02T00:43:11;35.83;;;26.77;;
18576;SDS011;9418;52.694;13.294;2024-03-02T00:46:19;37.73;;;26.87;;
18576;SDS011;9418;52.694;13.294;2024-03-02T00:48:51;42.00;;;26.40;;
18576;SDS011;9418;52.694;13.294;2024-03-02T00:51:20;38.70;;;27.30;;
18576;SDS011;9418;52.694;13.294;2024-03-02T00:53:49;35.03;;;25.60;;
18576;SDS011;9418;52.694;13.294;2024-03-02T00:56:16;39.00;;;29.50;;
18576;SDS011;9418;52.694;13.294;2024-03-02T00:58:43;50.43;;;32.90;;
18576;SDS011;9418;52.694;13.294;2024-03-02T01:01:09;40.43;;;29.20;;
18576;SDS011;9418;52.694;13.294;2024-03-02T01:03:36;41.43;;;30.13;;
18576;SDS011;9418;52.694;13.294;2024-03-02T01:06:03;33.30;;;26.43;;
18576;SDS011;9418;52.694;13.294;2024-03-02T01:08:32;36.50;;;26.60;;
18576;SDS011;9418;52.694;13.294;2024-03-02T01:11:00;39.07;;;27.03;;
18576;SDS011;9418;52.694;13.294;2024-03-02T01:13:27;37.90;;;30.00;;
18576;SDS011;9418;52.694;13.294;2024-03-02T01:15:53;35.83;;;27.00;;
18576;SDS011;9418;52.694;13.294;2024-03-02T01:18:20;36.80;;;26.00;;
18576;SDS011;9418;52.694;13.294;2024-03-02T01:20:47;35.70;;;27.30;;
18576;SDS011;9418;52.694;13.294;2024-03-02T01:23:16;39.97;;;26.90;;
18576;SDS011;9418;52.694;13.294;2024-03-02T01:25:43;38.30;;;26.67;;
18576;SDS011;9418;52.694;13.294;2024-03-02T01:28:11;39.50;;;28.77;;
18576;SDS011;9418;52.694;13.294;2024-03-02T01:30:37;45.80;;;28.97;;
18576;SDS011;9418;52.694;13.294;2024-03-02T01:33:04;36.50;;;26.93;;
18576;SDS011;9418;52.694;13.294;2024-03-02T01:35:31;41.00;;;25.80;;
18576;SDS011;9418;52.694;13.294;2024-03-02T01:37:58;42.50;;;27.53;;
18576;SDS011;9418;52.694;13.294;2024-03-02T01:40:24;35.70;;;26.70;;
18576;SDS011;9418;52.694;13.294;2024-03-02T01:42:52;38.50;;;28.37;;
18576;SDS011;9418;52.694;13.294;2024-03-02T01:45:20;43.07;;;32.00;;
18576;SDS011;9418;52.694;13.294;2024-03-02T01:47:47;38.40;;;28.53;;
18576;SDS011;9418;52.694;13.294;2024-03-02T01:50:14;35.30;;;27.80;;
18576;SDS011;9418;52.694;13.294;2024-03-02T01:52:40;37.10;;;28.37;;
18576;SDS011;9418;52.694;13.294;2024-03-02T01:55:09;43.77;;;29.53;;
18576;SDS011;9418;52.694;13.294;2024-03-02T01:57:35;41.77;;;29.47;;
18576;SDS011;9418;52.694;13.294;2024-03-02T02:00:02;47.83;;;31.50;;
18576;SDS011;9418;52.694;13.294;2024-03-02T02:02:31;46.20;;;31.20;;
18576;SDS011;9418;52.694;13.294;2024-03-02T02:04:58;39.43;;;28.30;;
18576;SDS011;9418;52.694;13.294;2024-03-02T02:07:25;44.80;;;31.53;;
18576;SDS011;9418;52.694;13.294;2024-03-02T02:09:51;37.27;;;28.53;;
18576;SDS011;9418;52.694;13.294;2024-03-02T02:12:18;44.13;;;32.23;;
18576;SDS011;9418;52.694;13.294;2024-03-02T02:14:48;38.97;;;30.07;;
18576;SDS011;9418;52.694;13.294;2024-03-02T02:17:15;41.93;;;28.70;;
18576;SDS011;9418;52.694;13.294;2024-03-02T02:19:42;43.93;;;28.10;;
18576;SDS011;9418;52.694;13.294;2024-03-02T02:22:10;38.33;;;28.90;;
18576;SDS011;9418;52.694;13.294;2024-03-02T02:24:39;48.03;;;30.43;;
18576;SDS011;9418;52.694;13.294;2024-03-02T02:27:06;39.33;;;29.40;;
18576;SDS011;9418;52.694;13.294;2024-03-02T02:29:32;43.93;;;30.20;;
18576;SDS011;9418;52.694;13.294;2024-03-02T02:31:59;40.30;;;29.83;;
18576;SDS011;9418;52.694;13.294;2024-03-02T02:34:25;39.23;;;30.93;;
18576;SDS011;9418;52.694;13.294;2024-03-02T02:36:52;42.20;;;29.50;;
18576;SDS011;9418;52.694;13.294;2024-03-02T02:39:21;41.00;;;30.50;;
18576;SDS011;9418;52.694;13.294;2024-03-02T02:41:48;44.43;;;30.77;;
18576;SDS011;9418;52.694;13.294;2024-03-02T02:44:15;42.97;;;31.20;;
18576;SDS011;9418;52.694;13.294;2024-03-02T02:46:41;46.87;;;31.73;;
18576;SDS011;9418;52.694;13.294;2024-03-02T02:49:08;45.20;;;30.60;;
18576;SDS011;9418;52.694;13.294;2024-03-02T02:51:34;46.07;;;31.67;;
18576;SDS011;9418;52.694;13.294;2024-03-02T02:54:01;47.40;;;33.33;;
18576;SDS011;9418;52.694;13.294;2024-03-02T02:56:29;42.90;;;31.40;;
18576;SDS011;9418;52.694;13.294;2024-03-02T02:58:56;43.57;;;32.73;;
18576;SDS011;9418;52.694;13.294;2024-03-02T03:01:22;44.97;;;31.47;;
18576;SDS011;9418;52.694;13.294;2024-03-02T03:03:49;47.97;;;34.40;;
18576;SDS011;9418;52.694;13.294;2024-03-02T03:06:16;46.57;;;33.57;;
18576;SDS011;9418;52.694;13.294;2024-03-02T03:08:42;56.40;;;36.50;;
18576;SDS011;9418;52.694;13.294;2024-03-02T03:11:09;52.40;;;35.60;;
18576;SDS011;9418;52.694;13.294;2024-03-02T03:13:36;53.10;;;36.13;;
18576;SDS011;9418;52.694;13.294;2024-03-02T03:16:03;47.30;;;35.53;;
18576;SDS011;9418;52.694;13.294;2024-03-02T03:18:30;51.73;;;35.20;;
18576;SDS011;9418;52.694;13.294;2024-03-02T03:20:57;66.77;;;39.93;;
18576;SDS011;9418;52.694;13.294;2024-03-02T03:23:23;51.43;;;37.00;;
18576;SDS011;9418;52.694;13.294;2024-03-02T03:25:50;54.13;;;38.30;;
18576;SDS011;9418;52.694;13.294;2024-03-02T03:28:17;57.73;;;38.43;;
18576;SDS011;9418;52.694;13.294;2024-03-02T03:30:45;55.97;;;39.70;;
18576;SDS011;9418;52.694;13.294;2024-03-02T03:33:12;58.47;;;39.37;;
18576;SDS011;9418;52.694;13.294;2024-03-02T03:35:39;58.80;;;39.40;;
18576;SDS011;9418;52.694;13.294;2024-03-02T03:38:05;56.47;;;41.30;;
18576;SDS011;9418;52.694;13.294;2024-03-02T03:40:32;66.33;;;43.07;;
18576;SDS011;9418;52.694;13.294;2024-03-02T03:42:58;69.80;;;42.60;;
18576;SDS011;9418;52.694;13.294;2024-03-02T03:45:25;63.57;;;42.20;;
18576;SDS011;9418;52.694;13.294;2024-03-02T03:47:53;64.53;;;44.07;;
18576;SDS011;9418;52.694;13.294;2024-03-02T03:50:20;63.63;;;44.57;;
18576;SDS011;9418;52.694;13.294;2024-03-02T03:52:47;62.93;;;42.97;;
18576;SDS011;9418;52.694;13.294;2024-03-02T03:55:13;64.63;;;42.40;;
18576;SDS011;9418;52.694;13.294;2024-03-02T03:57:40;62.07;;;41.53;;
18576;SDS011;9418;52.694;13.294;2024-03-02T04:00:07;58.83;;;42.67;;
18576;SDS011;9418;52.694;13.294;2024-03-02T04:02:36;60.80;;;41.90;;
18576;SDS011;9418;52.694;13.294;2024-03-02T04:05:04;68.97;;;43.67;;
18576;SDS011;9418;52.694;13.294;2024-03-02T04:07:34;68.10;;;43.03;;
18576;SDS011;9418;52.694;13.294;2024-03-02T04:10:05;67.70;;;44.10;;
18576;SDS011;9418;52.694;13.294;2024-03-02T04:12:33;61.43;;;43.67;;
18576;SDS011;9418;52.694;13.294;2024-03-02T04:15:00;61.10;;;43.53;;
18576;SDS011;9418;52.694;13.294;2024-03-02T04:17:28;58.67;;;42.60;;
18576;SDS011;9418;52.694;13.294;2024-03-02T04:19:56;62.50;;;42.27;;
18576;SDS011;9418;52.694;13.294;2024-03-02T04:22:24;68.57;;;43.17;;
18576;SDS011;9418;52.694;13.294;2024-03-02T04:24:51;55.23;;;41.10;;
18576;SDS011;9418;52.694;13.294;2024-03-02T04:27:18;58.43;;;39.87;;
18576;SDS011;9418;52.694;13.294;2024-03-02T04:29:44;61.80;;;42.37;;
18576;SDS011;9418;52.694;13.294;2024-03-02T04:32:11;61.23;;;41.77;;
18576;SDS011;9418;52.694;13.294;2024-03-02T04:34:38;61.00;;;41.80;;
18576;SDS011;9418;52.694;13.294;2024-03-02T04:37:05;62.53;;;42.07;;
18576;SDS011;9418;52.694;13.294;2024-03-02T04:39:33;51.60;;;39.20;;
18576;SDS011;9418;52.694;13.294;2024-03-02T04:42:00;55.10;;;38.17;;
18576;SDS011;9418;52.694;13.294;2024-03-02T04:44:27;60.37;;;40.60;;
18576;SDS011;9418;52.694;13.294;2024-03-02T04:46:54;61.17;;;41.50;;
18576;SDS011;9418;52.694;13.294;2024-03-02T04:49:21;55.87;;;39.87;;
18576;SDS011;9418;52.694;13.294;2024-03-02T04:51:47;51.70;;;37.93;;
18576;SDS011;9418;52.694;13.294;2024-03-02T04:54:14;54.00;;;40.40;;
18576;SDS011;9418;52.694;13.294;2024-03-02T04:56:42;60.80;;;40.17;;
18576;SDS011;9418;52.694;13.294;2024-03-02T04:59:14;58.63;;;41.03;;
18576;SDS011;9418;52.694;13.294;2024-03-02T05:01:41;56.10;;;40.43;;
18576;SDS011;9418;52.694;13.294;2024-03-02T05:04:07;59.87;;;41.70;;
18576;SDS011;9418;52.694;13.294;2024-03-02T05:06:36;55.50;;;40.10;;
18576;SDS011;9418;52.694;13.294;2024-03-02T05:09:03;71.03;;;42.07;;
18576;SDS011;9418;52.694;13.294;2024-03-02T05:11:29;57.83;;;40.73;;
18576;SDS011;9418;52.694;13.294;2024-03-02T05:14:22;60.40;;;40.63;;
18576;SDS011;9418;52.694;13.294;2024-03-02T05:16:50;63.33;;;41.80;;
18576;SDS011;9418;52.694;13.294;2024-03-02T05:19:16;55.30;;;40.10;;
18576;SDS011;9418;52.694;13.294;2024-03-02T05:21:43;56.17;;;40.10;;
18576;SDS011;9418;52.694;13.294;2024-03-02T05:24:10;56.67;;;41.57;;
18576;SDS011;9418;52.694;13.294;2024-03-02T05:26:36;52.73;;;40.13;;
18576;SDS011;9418;52.694;13.294;2024-03-02T05:29:03;59.13;;;40.27;;
18576;SDS011;9418;52.694;13.294;2024-03-02T05:31:31;55.47;;;41.00;;
18576;SDS011;9418;52.694;13.294;2024-03-02T05:33:57;56.70;;;40.27;;
18576;SDS011;9418;52.694;13.294;2024-03-02T05:36:24;57.60;;;39.83;;
18576;SDS011;9418;52.694;13.294;2024-03-02T05:38:51;54.77;;;39.80;;
18576;SDS011;9418;52.694;13.294;2024-03-02T05:41:17;56.00;;;40.47;;
18576;SDS011;9418;52.694;13.294;2024-03-02T05:43:44;64.93;;;40.73;;
18576;SDS011;9418;52.694;13.294;2024-03-02T05:46:10;62.23;;;40.30;;
18576;SDS011;9418;52.694;13.294;2024-03-02T05:48:39;59.87;;;40.93;;
18576;SDS011;9418;52.694;13.294;2024-03-02T05:51:05;57.47;;;40.50;;
18576;SDS011;9418;52.694;13.294;2024-03-02T05:53:32;56.67;;;40.87;;
18576;SDS011;9418;52.694;13.294;2024-03-02T05:55:59;55.70;;;39.10;;
18576;SDS011;9418;52.694;13.294;2024-03-02T05:58:25;52.53;;;39.90;;
18576;SDS011;9418;52.694;13.294;2024-03-02T06:01:03;55.33;;;41.23;;
18576;SDS011;9418;52.694;13.294;2024-03-02T06:03:30;65.40;;;39.60;;
18576;SDS011;9418;52.694;13.294;2024-03-02T06:05:58;59.50;;;42.17;;
18576;SDS011;9418;52.694;13.294;2024-03-02T06:08:25;55.80;;;39.93;;
18576;SDS011;9418;52.694;13.294;2024-03-02T06:10:51;56.40;;;40.20;;
18576;SDS011;9418;52.694;13.294;2024-03-02T06:13:18;56.27;;;41.00;;
18576;SDS011;9418;52.694;13.294;2024-03-02T06:15:45;59.23;;;41.03;;
18576;SDS011;9418;52.694;13.294;2024-03-02T06:18:11;53.47;;;39.00;;
18576;SDS011;9418;52.694;13.294;2024-03-02T06:20:38;62.83;;;42.83;;
18576;SDS011;9418;52.694;13.294;2024-03-02T06:23:06;54.67;;;39.80;;
18576;SDS011;9418;52.694;13.294;2024-03-02T06:25:32;55.90;;;41.43;;
18576;SDS011;9418;52.694;13.294;2024-03-02T06:27:59;57.27;;;41.63;;
18576;SDS011;9418;52.694;13.294;2024-03-02T06:30:25;61.43;;;42.50;;
18576;SDS011;9418;52.694;13.294;2024-03-02T06:32:52;61.20;;;43.83;;
18576;SDS011;9418;52.694;13.294;2024-03-02T06:35:19;63.67;;;44.70;;
18576;SDS011;9418;52.694;13.294;2024-03-02T06:37:45;56.27;;;42.73;;
18576;SDS011;9418;52.694;13.294;2024-03-02T06:40:13;65.40;;;44.07;;
18576;SDS011;9418;52.694;13.294;2024-03-02T06:42:40;60.70;;;43.10;;
18576;SDS011;9418;52.694;13.294;2024-03-02T06:45:06;61.33;;;44.17;;
18576;SDS011;9418;52.694;13.294;2024-03-02T06:47:33;66.03;;;44.17;;
18576;SDS011;9418;52.694;13.294;2024-03-02T06:50:00;66.97;;;42.77;;
18576;SDS011;9418;52.694;13.294;2024-03-02T06:52:26;58.27;;;41.77;;
18576;SDS011;9418;52.694;13.294;2024-03-02T06:54:53;58.50;;;41.73;;
18576;SDS011;9418;52.694;13.294;2024-03-02T06:57:21;62.80;;;41.90;;
18576;SDS011;9418;52.694;13.294;2024-03-02T06:59:49;58.30;;;41.10;;
18576;SDS011;9418;52.694;13.294;2024-03-02T07:02:18;58.07;;;42.43;;
18576;SDS011;9418;52.694;13.294;2024-03-02T07:04:45;61.43;;;42.30;;
18576;SDS011;9418;52.694;13.294;2024-03-02T07:07:12;60.73;;;43.90;;
18576;SDS011;9418;52.694;13.294;2024-03-02T07:09:38;62.23;;;43.20;;
18576;SDS011;9418;52.694;13.294;2024-03-02T07:12:05;58.50;;;42.47;;
18576;SDS011;9418;52.694;13.294;2024-03-02T07:14:33;59.17;;;41.83;;
18576;SDS011;9418;52.694;13.294;2024-03-02T07:17:17;61.83;;;42.03;;
18576;SDS011;9418;52.694;13.294;2024-03-02T07:19:44;56.20;;;41.00;;
18576;SDS011;9418;52.694;13.294;2024-03-02T07:22:10;57.30;;;41.17;;
18576;SDS011;9418;52.694;13.294;2024-03-02T07:24:40;61.10;;;43.00;;
18576;SDS011;9418;52.694;13.294;2024-03-02T07:27:07;58.70;;;41.67;;
18576;SDS011;9418;52.694;13.294;2024-03-02T07:29:35;58.97;;;41.53;;
18576;SDS011;9418;52.694;13.294;2024-03-02T07:32:02;59.40;;;42.47;;
18576;SDS011;9418;52.694;13.294;2024-03-02T07:34:28;57.93;;;42.30;;
18576;SDS011;9418;52.694;13.294;2024-03-02T07:36:55;65.03;;;42.87;;
18576;SDS011;9418;52.694;13.294;2024-03-02T07:39:22;62.30;;;44.00;;
18576;SDS011;9418;52.694;13.294;2024-03-02T07:41:49;61.03;;;42.57;;
18576;SDS011;9418;52.694;13.294;2024-03-02T07:44:16;55.07;;;41.27;;
18576;SDS011;9418;52.694;13.294;2024-03-02T07:46:45;61.00;;;43.20;;
18576;SDS011;9418;52.694;13.294;2024-03-02T07:49:14;55.70;;;41.87;;
18576;SDS011;9418;52.694;13.294;2024-03-02T07:51:41;59.13;;;41.37;;
18576;SDS011;9418;52.694;13.294;2024-03-02T07:54:08;60.00;;;42.17;;
18576;SDS011;9418;52.694;13.294;2024-03-02T07:56:35;65.93;;;43.33;;
18576;SDS011;9418;52.694;13.294;2024-03-02T07:59:02;69.20;;;44.50;;
18576;SDS011;9418;52.694;13.294;2024-03-02T08:01:30;61.53;;;43.57;;
18576;SDS011;9418;52.694;13.294;2024-03-02T08:03:59;64.50;;;43.60;;
18576;SDS011;9418;52.694;13.294;2024-03-02T08:06:26;60.53;;;44.20;;
18576;SDS011;9418;52.694;13.294;2024-03-02T08:08:53;64.00;;;41.87;;
18576;SDS011;9418;52.694;13.294;2024-03-02T08:11:20;62.17;;;41.57;;
18576;SDS011;9418;52.694;13.294;2024-03-02T08:13:47;58.23;;;41.93;;
18576;SDS011;9418;52.694;13.294;2024-03-02T08:16:13;62.80;;;44.50;;
18576;SDS011;9418;52.694;13.294;2024-03-02T08:18:40;63.67;;;42.80;;
18576;SDS011;9418;52.694;13.294;2024-03-02T08:21:09;59.03;;;42.60;;
18576;SDS011;9418;52.694;13.294;2024-03-02T08:23:35;61.70;;;43.60;;
18576;SDS011;9418;52.694;13.294;2024-03-02T08:26:03;65.00;;;45.30;;
18576;SDS011;9418;52.694;13.294;2024-03-02T08:28:30;64.07;;;43.93;;
18576;SDS011;9418;52.694;13.294;2024-03-02T08:30:56;67.73;;;43.53;;
18576;SDS011;9418;52.694;13.294;2024-03-02T08:33:23;61.03;;;43.40;;
18576;SDS011;9418;52.694;13.294;2024-03-02T08:35:50;61.13;;;43.27;;
18576;SDS011;9418;52.694;13.294;2024-03-02T08:38:18;65.63;;;43.40;;
18576;SDS011;9418;52.694;13.294;2024-03-02T08:40:45;61.20;;;42.50;;
18576;SDS011;9418;52.694;13.294;2024-03-02T08:43:11;78.80;;;44.97;;
18576;SDS011;9418;52.694;13.294;2024-03-02T08:45:38;63.60;;;42.27;;
18576;SDS011;9418;52.694;13.294;2024-03-02T08:48:06;57.07;;;40.60;;
18576;SDS011;9418;52.694;13.294;2024-03-02T08:50:33;62.33;;;43.23;;
18576;SDS011;9418;52.694;13.294;2024-03-02T08:53:00;58.50;;;42.90;;
18576;SDS011;9418;52.694;13.294;2024-03-02T08:55:28;62.07;;;43.40;;
18576;SDS011;9418;52.694;13.294;2024-03-02T08:57:54;65.20;;;45.13;;
18576;SDS011;9418;52.694;13.294;2024-03-02T09:00:21;65.27;;;45.23;;
18576;SDS011;9418;52.694;13.294;2024-03-02T09:02:48;73.93;;;45.57;;
18576;SDS011;9418;52.694;13.294;2024-03-02T09:05:15;66.30;;;43.77;;
18576;SDS011;9418;52.694;13.294;2024-03-02T09:07:42;63.33;;;44.90;;
18576;SDS011;9418;52.694;13.294;2024-03-02T09:10:09;69.70;;;45.63;;
18576;SDS011;9418;52.694;13.294;2024-03-02T09:12:37;61.50;;;41.77;;
18576;SDS011;9418;52.694;13.294;2024-03-02T09:15:04;66.37;;;44.97;;
18576;SDS011;9418;52.694;13.294;2024-03-02T09:17:31;59.27;;;43.77;;
18576;SDS011;9418;52.694;13.294;2024-03-02T09:19:58;56.83;;;41.70;;
18576;SDS011;9418;52.694;13.294;2024-03-02T09:22:25;60.67;;;43.87;;
18576;SDS011;9418;52.694;13.294;2024-03-02T09:24:51;61.07;;;43.07;;
18576;SDS011;9418;52.694;13.294;2024-03-02T09:27:18;73.73;;;44.60;;
18576;SDS011;9418;52.694;13.294;2024-03-02T09:29:46;62.27;;;41.17;;
18576;SDS011;9418;52.694;13.294;2024-03-02T09:32:13;62.17;;;43.77;;
18576;SDS011;9418;52.694;13.294;2024-03-02T09:34:40;60.97;;;42.97;;
18576;SDS011;9418;52.694;13.294;2024-03-02T09:37:08;57.10;;;39.77;;
18576;SDS011;9418;52.694;13.294;2024-03-02T09:39:35;61.83;;;43.80;;
18576;SDS011;9418;52.694;13.294;2024-03-02T09:42:01;62.07;;;43.47;;
18576;SDS011;9418;52.694;13.294;2024-03-02T09:44:30;57.10;;;41.53;;
18576;SDS011;9418;52.694;13.294;2024-03-02T09:46:58;68.27;;;44.47;;
18576;SDS011;9418;52.694;13.294;2024-03-02T09:49:25;60.63;;;41.57;;
18576;SDS011;9418;52.694;13.294;2024-03-02T09:51:51;62.03;;;42.00;;
18576;SDS011;9418;52.694;13.294;2024-03-02T09:54:18;65.10;;;42.40;;
18576;SDS011;9418;52.694;13.294;2024-03-02T09:56:46;72.43;;;43.27;;
18576;SDS011;9418;52.694;13.294;2024-03-02T09:59:12;59.40;;;40.60;;
18576;SDS011;9418;52.694;13.294;2024-03-02T10:01:54;64.30;;;41.90;;
18576;SDS011;9418;52.694;13.294;2024-03-02T10:04:23;53.40;;;40.63;;
18576;SDS011;9418;52.694;13.294;2024-03-02T10:06:51;63.70;;;40.20;;
18576;SDS011;9418;52.694;13.294;2024-03-02T10:09:26;57.00;;;40.47;;
18576;SDS011;9418;52.694;13.294;2024-03-02T10:11:53;53.30;;;37.47;;
18576;SDS011;9418;52.694;13.294;2024-03-02T10:14:30;52.03;;;37.50;;
18576;SDS011;9418;52.694;13.294;2024-03-02T10:17:01;56.53;;;39.50;;
18576;SDS011;9418;52.694;13.294;2024-03-02T10:19:30;53.80;;;39.53;;
18576;SDS011;9418;52.694;13.294;2024-03-02T10:21:58;57.07;;;39.13;;
18576;SDS011;9418;52.694;13.294;2024-03-02T10:24:25;54.50;;;37.87;;
18576;SDS011;9418;52.694;13.294;2024-03-02T10:26:52;55.00;;;38.17;;
18576;SDS011;9418;52.694;13.294;2024-03-02T10:29:19;47.93;;;35.43;;
18576;SDS011;9418;52.694;13.294;2024-03-02T10:31:45;50.20;;;34.63;;
18576;SDS011;9418;52.694;13.294;2024-03-02T10:34:12;53.43;;;36.30;;
18576;SDS011;9418;52.694;13.294;2024-03-02T10:36:42;47.83;;;34.60;;
18576;SDS011;9418;52.694;13.294;2024-03-02T10:39:10;46.90;;;34.80;;
18576;SDS011;9418;52.694;13.294;2024-03-02T10:41:39;47.43;;;34.17;;
18576;SDS011;9418;52.694;13.294;2024-03-02T10:44:07;48.63;;;33.80;;
18576;SDS011;9418;52.694;13.294;2024-03-02T10:46:35;45.53;;;33.30;;
18576;SDS011;9418;52.694;13.294;2024-03-02T10:49:03;41.60;;;32.20;;
18576;SDS011;9418;52.694;13.294;2024-03-02T10:51:30;47.00;;;32.50;;
18576;SDS011;9418;52.694;13.294;2024-03-02T10:54:03;53.70;;;34.77;;
18576;SDS011;9418;52.694;13.294;2024-03-02T10:56:31;46.33;;;33.93;;
18576;SDS011;9418;52.694;13.294;2024-03-02T10:59:02;48.43;;;31.93;;
18576;SDS011;9418;52.694;13.294;2024-03-02T11:01:32;40.43;;;30.63;;
18576;SDS011;9418;52.694;13.294;2024-03-02T11:04:00;42.93;;;30.73;;
18576;SDS011;9418;52.694;13.294;2024-03-02T11:06:30;41.27;;;29.70;;
18576;SDS011;9418;52.694;13.294;2024-03-02T11:09:00;40.27;;;27.83;;
18576;SDS011;9418;52.694;13.294;2024-03-02T11:11:32;38.30;;;29.20;;
18576;SDS011;9418;52.694;13.294;2024-03-02T11:14:02;38.93;;;29.10;;
18576;SDS011;9418;52.694;13.294;2024-03-02T11:16:34;33.97;;;27.00;;
18576;SDS011;9418;52.694;13.294;2024-03-02T11:19:03;34.80;;;26.07;;
18576;SDS011;9418;52.694;13.294;2024-03-02T11:21:31;34.17;;;25.13;;
18576;SDS011;9418;52.694;13.294;2024-03-02T11:23:58;31.80;;;25.40;;
18576;SDS011;9418;52.694;13.294;2024-03-02T11:26:28;35.60;;;24.87;;
18576;SDS011;9418;52.694;13.294;2024-03-02T11:28:55;28.80;;;23.03;;
18576;SDS011;9418;52.694;13.294;2024-03-02T11:31:23;31.20;;;23.87;;
18576;SDS011;9418;52.694;13.294;2024-03-02T11:34:28;26.50;;;21.10;;
18576;SDS011;9418;52.694;13.294;2024-03-02T11:36:55;27.53;;;21.70;;
18576;SDS011;9418;52.694;13.294;2024-03-02T11:39:22;29.20;;;20.97;;
18576;SDS011;9418;52.694;13.294;2024-03-02T11:41:50;26.35;;;19.05;;
18576;SDS011;9418;52.694;13.294;2024-03-02T11:44:17;26.53;;;20.07;;
18576;SDS011;9418;52.694;13.294;2024-03-02T11:46:44;29.90;;;20.17;;
18576;SDS011;9418;52.694;13.294;2024-03-02T11:49:13;27.17;;;21.27;;
18576;SDS011;9418;52.694;13.294;2024-03-02T11:51:49;26.03;;;20.43;;
18576;SDS011;9418;52.694;13.294;2024-03-02T11:54:19;29.40;;;21.93;;
18576;SDS011;9418;52.694;13.294;2024-03-02T11:56:46;31.20;;;21.40;;
18576;SDS011;9418;52.694;13.294;2024-03-02T11:59:15;29.67;;;23.10;;
18576;SDS011;9418;52.694;13.294;2024-03-02T12:01:41;31.10;;;22.00;;
18576;SDS011;9418;52.694;13.294;2024-03-02T12:04:09;27.80;;;22.67;;
18576;SDS011;9418;52.694;13.294;2024-03-02T12:06:36;32.07;;;22.20;;
18576;SDS011;9418;52.694;13.294;2024-03-02T12:09:04;30.43;;;22.30;;
18576;SDS011;9418;52.694;13.294;2024-03-02T12:11:31;27.67;;;21.17;;
18576;SDS011;9418;52.694;13.294;2024-03-02T12:13:58;32.13;;;22.93;;
18576;SDS011;9418;52.694;13.294;2024-03-02T12:16:26;28.87;;;21.77;;
18576;SDS011;9418;52.694;13.294;2024-03-02T12:18:52;34.60;;;23.63;;
18576;SDS011;9418;52.694;13.294;2024-03-02T12:21:20;28.90;;;22.33;;
18576;SDS011;9418;52.694;13.294;2024-03-02T12:23:46;30.73;;;21.90;;
18576;SDS011;9418;52.694;13.294;2024-03-02T12:26:14;27.00;;;21.23;;
18576;SDS011;9418;52.694;13.294;2024-03-02T12:28:41;31.83;;;23.13;;
18576;SDS011;9418;52.694;13.294;2024-03-02T12:31:08;26.63;;;21.93;;
18576;SDS011;9418;52.694;13.294;2024-03-02T12:33:36;28.77;;;21.90;;
18576;SDS011;9418;52.694;13.294;2024-03-02T12:36:03;28.70;;;22.50;;
18576;SDS011;9418;52.694;13.294;2024-03-02T12:38:31;30.50;;;22.47;;
18576;SDS011;9418;52.694;13.294;2024-03-02T12:40:57;30.13;;;21.90;;
18576;SDS011;9418;52.694;13.294;2024-03-02T12:43:24;27.53;;;22.50;;
18576;SDS011;9418;52.694;13.294;2024-03-02T12:45:55;26.60;;;20.13;;
18576;SDS011;9418;52.694;13.294;2024-03-02T12:48:21;26.63;;;20.40;;
18576;SDS011;9418;52.694;13.294;2024-03-02T12:50:50;29.70;;;20.63;;
18576;SDS011;9418;52.694;13.294;2024-03-02T12:53:16;24.87;;;18.47;;
18576;SDS011;9418;52.694;13.294;2024-03-02T12:55:43;27.07;;;20.10;;
18576;SDS011;9418;52.694;13.294;2024-03-02T12:58:16;26.20;;;19.03;;
18576;SDS011;9418;52.694;13.294;2024-03-02T13:00:43;24.93;;;19.57;;
18576;SDS011;9418;52.694;13.294;2024-03-02T13:03:09;46.47;;;18.20;;
18576;SDS011;9418;52.694;13.294;2024-03-02T13:05:38;27.57;;;19.90;;
18576;SDS011;9418;52.694;13.294;2024-03-02T13:08:07;27.03;;;18.57;;
18576;SDS011;9418;52.694;13.294;2024-03-02T13:10:34;22.07;;;17.57;;
18576;SDS011;9418;52.694;13.294;2024-03-02T13:13:00;20.70;;;16.80;;
18576;SDS011;9418;52.694;13.294;2024-03-02T13:15:27;19.33;;;16.80;;
18576;SDS011;9418;52.694;13.294;2024-03-02T13:17:53;27.77;;;17.87;;
18576;SDS011;9418;52.694;13.294;2024-03-02T13:20:29;22.83;;;17.00;;
18576;SDS011;9418;52.694;13.294;2024-03-02T13:22:56;20.90;;;17.37;;
18576;SDS011;9418;52.694;13.294;2024-03-02T13:25:24;18.93;;;16.90;;
18576;SDS011;9418;52.694;13.294;2024-03-02T13:27:51;25.77;;;17.90;;
18576;SDS011;9418;52.694;13.294;2024-03-02T13:30:18;16.50;;;14.70;;
18576;SDS011;9418;52.694;13.294;2024-03-02T13:32:44;20.27;;;15.53;;
18576;SDS011;9418;52.694;13.294;2024-03-02T13:35:11;23.53;;;16.07;;
18576;SDS011;9418;52.694;13.294;2024-03-02T13:37:37;20.53;;;16.27;;
18576;SDS011;9418;52.694;13.294;2024-03-02T13:40:04;19.80;;;15.97;;
18576;SDS011;9418;52.694;13.294;2024-03-02T13:42:39;22.30;;;16.87;;
18576;SDS011;9418;52.694;13.294;2024-03-02T13:45:06;24.87;;;16.90;;
18576;SDS011;9418;52.694;13.294;2024-03-02T13:47:32;22.33;;;15.43;;
18576;SDS011;9418;52.694;13.294;2024-03-02T13:49:59;18.00;;;14.70;;
18576;SDS011;9418;52.694;13.294;2024-03-02T13:52:27;20.43;;;15.57;;
18576;SDS011;9418;52.694;13.294;2024-03-02T13:54:55;20.30;;;16.10;;
18576;SDS011;9418;52.694;13.294;2024-03-02T13:57:21;17.77;;;14.57;;
18576;SDS011;9418;52.694;13.294;2024-03-02T13:59:50;19.77;;;15.13;;
18576;SDS011;9418;52.694;13.294;2024-03-02T14:02:17;20.90;;;17.00;;
18576;SDS011;9418;52.694;13.294;2024-03-02T14:04:44;18.20;;;15.47;;
18576;SDS011;9418;52.694;13.294;2024-03-02T14:07:11;23.73;;;15.10;;
18576;SDS011;9418;52.694;13.294;2024-03-02T14:09:37;18.93;;;12.90;;
18576;SDS011;9418;52.694;13.294;2024-03-02T14:12:04;15.63;;;13.70;;
18576;SDS011;9418;52.694;13.294;2024-03-02T14:14:31;21.87;;;14.07;;
18576;SDS011;9418;52.694;13.294;2024-03-02T14:16:59;16.40;;;13.73;;
18576;SDS011;9418;52.694;13.294;2024-03-02T14:19:29;21.00;;;13.37;;
18576;SDS011;9418;52.694;13.294;2024-03-02T14:21:56;19.03;;;14.50;;
18576;SDS011;9418;52.694;13.294;2024-03-02T14:24:22;19.10;;;14.53;;